Time;durP1;ratioP1;P1;durP2;ratioP2;P2;SDS_P1;SDS_P2;PMS_P1;PMS_P2;Temp;Humidity;BMP_temperature;BMP_pressure;BME280_temperature;BME280_humidity;BME280_pressure;Samples;Min_cycle;Max_cycle;Signal;HPM_P1;HPM_P2
2021/04/08 00:00:50;;;;;;;4.57;1.98;;;;;;;8.09;52.80;101450.00;4972970;28;20023;-94
2021/04/08 00:03:16;;;;;;;9.52;2.20;;;;;;;7.92;53.90;101454.16;4975115;28;20478;-94
2021/04/08 00:05:41;;;;;;;5.18;1.67;;;;;;;7.86;54.54;101449.16;4972549;28;20045;-94
2021/04/08 00:08:06;;;;;;;2.38;1.67;;;;;;;8.00;53.07;101445.13;4974102;28;20428;-94
2021/04/08 00:10:32;;;;;;;3.22;1.52;;;;;;;8.06;53.21;101445.75;4982901;28;20033;-94
2021/04/08 00:12:57;;;;;;;2.63;1.20;;;;;;;8.06;53.79;101450.13;4992205;28;20032;-94
2021/04/08 00:15:22;;;;;;;9.27;1.98;;;;;;;8.05;54.73;101443.19;4992535;28;20500;-94
2021/04/08 00:17:48;;;;;;;10.00;1.77;;;;;;;7.89;53.77;101449.03;4993452;28;20085;-94
2021/04/08 00:20:19;;;;;;;2.95;1.50;;;;;;;8.07;53.79;101446.59;4991986;28;20484;-93
2021/04/08 00:22:44;;;;;;;2.88;1.50;;;;;;;8.08;53.90;101427.38;4993311;28;20377;-94
2021/04/08 00:25:11;;;;;;;3.40;1.23;;;;;;;8.10;53.48;101446.47;4991354;28;20041;-94
2021/04/08 00:27:37;;;;;;;3.20;1.42;;;;;;;8.14;53.64;101440.19;4975048;28;20397;-94
2021/04/08 00:30:04;;;;;;;2.05;1.00;;;;;;;8.25;53.65;101440.59;4972594;28;20026;-94
2021/04/08 00:32:29;;;;;;;4.60;1.50;;;;;;;8.15;53.37;101428.81;4973638;28;20027;-94
2021/04/08 00:34:55;;;;;;;1.70;0.98;;;;;;;8.21;53.44;101427.72;4972316;28;20113;-94
2021/04/08 00:37:21;;;;;;;3.60;1.45;;;;;;;8.23;53.76;101425.88;4972342;28;20113;-94
2021/04/08 00:39:47;;;;;;;3.47;1.10;;;;;;;8.31;53.14;101432.50;4974755;28;20114;-93
2021/04/08 00:42:13;;;;;;;2.15;1.20;;;;;;;8.18;53.29;101441.78;4973509;28;20023;-94
2021/04/08 00:44:38;;;;;;;6.05;1.40;;;;;;;8.17;51.87;101439.22;4972323;28;20031;-95
2021/04/08 00:47:04;;;;;;;3.45;2.15;;;;;;;8.32;52.32;101436.81;4973465;28;20023;-95
2021/04/08 00:49:29;;;;;;;4.80;1.48;;;;;;;8.31;52.43;101429.88;4988094;28;20456;-94
2021/04/08 00:51:54;;;;;;;4.35;1.40;;;;;;;8.28;52.84;101424.78;4992703;28;20102;-94
2021/04/08 00:54:20;;;;;;;3.83;1.15;;;;;;;8.23;53.30;101418.88;4995030;28;20026;-94
2021/04/08 00:56:47;;;;;;;4.47;1.20;;;;;;;8.25;53.54;101403.13;4997187;28;20030;-93
2021/04/08 00:59:13;;;;;;;2.85;1.00;;;;;;;8.31;52.94;101403.72;4996348;28;20079;-94
2021/04/08 01:01:38;;;;;;;4.32;1.38;;;;;;;8.27;52.67;101396.94;4976145;28;20385;-94
2021/04/08 01:04:04;;;;;;;2.42;1.23;;;;;;;8.25;52.75;101393.50;4977263;28;20027;-94
2021/04/08 01:06:30;;;;;;;4.72;1.30;;;;;;;8.29;52.86;101400.31;4976185;28;20041;-95
2021/04/08 01:08:55;;;;;;;8.43;2.50;;;;;;;8.24;52.13;101407.50;4994755;28;20030;-95
2021/04/08 01:11:21;;;;;;;5.78;1.77;;;;;;;8.25;52.32;101405.72;4994278;28;20481;-95
2021/04/08 01:13:46;;;;;;;3.30;1.73;;;;;;;8.27;52.16;101402.16;4977175;28;20022;-94
2021/04/08 01:16:22;;;;;;;3.95;1.73;;;;;;;8.39;53.56;101405.16;4976975;28;20031;-94
2021/04/08 01:19:15;;;;;;;4.90;1.40;;;;;;;8.45;53.15;101394.44;4975894;28;20527;-94
2021/04/08 01:21:45;;;;;;;5.25;1.45;;;;;;;8.29;53.59;101392.47;4977126;28;20038;-94
2021/04/08 01:24:37;;;;;;;3.65;1.50;;;;;;;8.38;53.69;101393.00;4977014;28;20034;-94
2021/04/08 01:27:28;;;;;;;2.33;1.42;;;;;;;8.29;54.33;101392.47;4975623;28;20034;-95
2021/04/08 01:30:20;;;;;;;6.73;1.63;;;;;;;8.22;52.77;101404.09;4963646;28;20041;-95
2021/04/08 01:32:50;;;;;;;1.75;1.38;;;;;;;8.17;53.46;101389.50;4976901;28;20023;-95
2021/04/08 01:35:19;;;;;;;2.58;1.52;;;;;;;8.17;53.41;101398.19;4975690;28;20080;-95
2021/04/08 01:38:36;;;;;;;8.52;1.85;;;;;;;8.21;53.86;101396.31;4976693;28;20050;-94
2021/04/08 01:41:02;;;;;;;5.75;1.63;;;;;;;8.10;54.69;101381.91;4967890;28;20043;-94
2021/04/08 01:43:32;;;;;;;6.68;1.50;;;;;;;8.17;54.71;101389.50;4975449;28;20046;-94
2021/04/08 01:45:59;;;;;;;3.53;1.80;;;;;;;7.76;54.40;101395.56;4977101;28;20502;-95
2021/04/08 01:48:27;;;;;;;4.85;1.90;;;;;;;7.82;54.76;101392.69;4975250;28;20037;-94
2021/04/08 01:50:59;;;;;;;4.50;1.77;;;;;;;7.91;55.02;101399.28;4975396;28;20062;-94
2021/04/08 01:53:26;;;;;;;3.63;1.67;;;;;;;7.97;54.10;101398.19;4975657;28;20027;-95
2021/04/08 01:55:56;;;;;;;4.50;1.38;;;;;;;8.02;54.64;101401.47;4975374;28;20030;-95
2021/04/08 01:58:24;;;;;;;2.70;1.50;;;;;;;8.01;55.62;101398.00;4975505;28;20023;-94
2021/04/08 02:00:51;;;;;;;2.72;1.38;;;;;;;8.04;55.53;101384.81;4976248;28;20050;-94
2021/04/08 02:03:17;;;;;;;3.63;1.45;;;;;;;8.05;55.06;101386.47;4975276;28;20035;-94
2021/04/08 02:05:43;;;;;;;3.25;1.50;;;;;;;8.07;55.77;101389.88;4974337;28;20046;-93
2021/04/08 02:08:10;;;;;;;2.85;1.65;;;;;;;8.14;55.26;101395.72;4978001;28;20398;-93
2021/04/08 02:10:38;;;;;;;5.65;1.90;;;;;;;8.16;55.49;101380.81;4979050;28;20540;-94
2021/04/08 02:13:05;;;;;;;4.00;1.60;;;;;;;8.14;53.98;101383.50;4976220;28;20057;-94
2021/04/08 02:15:31;;;;;;;3.60;1.88;;;;;;;8.17;54.99;101382.50;4974879;28;20027;-95
2021/04/08 02:17:59;;;;;;;2.75;1.85;;;;;;;8.19;55.54;101378.06;4975174;28;20497;-93
2021/04/08 02:20:29;;;;;;;3.03;1.33;;;;;;;8.30;55.53;101378.47;4976081;28;20104;-94
2021/04/08 02:22:57;;;;;;;7.60;1.60;;;;;;;8.31;56.06;101380.19;4976075;28;20037;-93
2021/04/08 02:25:24;;;;;;;2.85;1.58;;;;;;;8.33;55.94;101367.88;4974608;28;20031;-94
2021/04/08 02:27:51;;;;;;;2.13;1.23;;;;;;;8.37;56.15;101372.97;4975705;28;20493;-94
2021/04/08 02:30:22;;;;;;;3.45;1.63;;;;;;;8.39;56.35;101379.81;4986392;28;20121;-95
2021/04/08 02:32:48;;;;;;;1.92;1.35;;;;;;;8.26;55.99;101376.88;4995066;28;20042;-93
2021/04/08 02:35:16;;;;;;;4.13;1.50;;;;;;;8.28;55.94;101377.69;4995077;28;20022;-93
2021/04/08 02:37:43;;;;;;;2.75;1.60;;;;;;;8.29;55.65;101368.94;4995029;28;20233;-94
2021/04/08 02:40:12;;;;;;;5.47;1.67;;;;;;;8.36;55.75;101373.88;4994787;28;20081;-94
2021/04/08 02:42:37;;;;;;;4.18;1.40;;;;;;;8.41;54.98;101369.28;4994568;28;20384;-94
2021/04/08 02:45:06;;;;;;;3.95;1.50;;;;;;;8.47;55.59;101362.06;4981978;28;20026;-93
2021/04/08 02:47:31;;;;;;;6.00;1.90;;;;;;;8.39;55.54;101355.41;4969284;28;20022;-93
2021/04/08 02:49:57;;;;;;;5.43;2.53;;;;;;;8.43;56.45;101359.63;4994685;28;20380;-94
2021/04/08 02:52:25;;;;;;;4.45;1.90;;;;;;;8.41;56.44;101350.97;4987640;28;20126;-94
2021/04/08 02:54:59;;;;;;;2.25;1.45;;;;;;;8.47;56.33;101346.38;4993145;28;20038;-94
2021/04/08 02:57:30;;;;;;;4.90;2.00;;;;;;;8.50;56.32;101340.97;4993310;28;20065;-93
2021/04/08 03:00:07;;;;;;;3.78;1.88;;;;;;;8.57;55.56;101344.19;4993473;28;20454;-95
2021/04/08 03:02:35;;;;;;;3.72;1.50;;;;;;;8.57;56.27;101345.94;4978333;28;20035;-94
2021/04/08 03:05:02;;;;;;;7.82;1.60;;;;;;;8.47;56.02;101332.41;4975099;28;20504;-94
2021/04/08 03:07:42;;;;;;;4.22;2.08;;;;;;;8.26;54.42;101331.56;4973728;28;20043;-94
2021/04/08 03:10:10;;;;;;;4.07;2.00;;;;;;;8.18;53.62;101339.75;4973741;28;20062;-94
2021/04/08 03:12:40;;;;;;;6.07;2.40;;;;;;;8.18;53.30;101331.91;4974751;28;20026;-93
2021/04/08 03:15:07;;;;;;;7.13;2.53;;;;;;;8.20;53.31;101322.22;4974619;28;20046;-94
2021/04/08 03:17:37;;;;;;;6.88;2.25;;;;;;;8.03;53.32;101327.31;4983833;28;20499;-94
2021/04/08 03:20:06;;;;;;;9.77;2.97;;;;;;;8.10;53.18;101328.78;4992732;28;20026;-94
2021/04/08 03:22:34;;;;;;;6.28;1.75;;;;;;;8.03;52.77;101327.31;4993472;28;20030;-93
2021/04/08 03:24:59;;;;;;;8.90;3.08;;;;;;;8.16;53.15;101330.28;4992931;28;20095;-93
2021/04/08 03:27:26;;;;;;;3.75;1.75;;;;;;;8.32;51.94;101326.06;4992889;28;20049;-94
2021/04/08 03:29:53;;;;;;;3.20;1.58;;;;;;;8.34;52.28;101324.22;4992855;28;20519;-94
2021/04/08 03:32:19;;;;;;;5.57;2.10;;;;;;;8.36;51.96;101329.41;4984284;28;20054;-94
2021/04/08 03:34:46;;;;;;;3.75;1.67;;;;;;;8.45;51.06;101331.63;4973381;28;20030;-94
2021/04/08 03:37:11;;;;;;;5.68;2.10;;;;;;;8.50;51.67;101332.28;4973502;28;20062;-94
2021/04/08 03:39:38;;;;;;;8.77;1.63;;;;;;;8.35;51.87;101331.16;4974511;28;20084;-94
2021/04/08 03:42:05;;;;;;;11.90;3.20;;;;;;;8.52;51.93;101325.22;4981239;28;20030;-95
2021/04/08 03:44:32;;;;;;;9.68;2.05;;;;;;;8.17;52.27;101305.78;4994425;28;20027;-95
2021/04/08 03:46:59;;;;;;;8.43;1.70;;;;;;;8.17;52.58;101308.41;4992908;28;20026;-95
2021/04/08 03:49:26;;;;;;;5.43;2.40;;;;;;;8.18;52.64;101308.34;4993737;28;20106;-94
2021/04/08 03:51:53;;;;;;;8.20;2.25;;;;;;;8.40;52.29;101315.25;4993510;28;20022;-95
2021/04/08 03:54:21;;;;;;;11.23;2.00;;;;;;;8.37;52.31;101318.00;4992628;28;20022;-94
2021/04/08 03:56:49;;;;;;;5.43;2.53;;;;;;;8.29;52.83;101308.75;4992037;28;20515;-95
2021/04/08 03:59:17;;;;;;;7.00;2.42;;;;;;;8.26;52.72;101302.78;4979834;28;20478;-94
2021/04/08 04:01:44;;;;;;;5.82;2.17;;;;;;;8.39;52.27;101295.22;4974331;28;20022;-95
2021/04/08 04:04:10;;;;;;;5.70;1.75;;;;;;;8.46;53.32;101300.16;4973169;28;20019;-94
2021/04/08 04:06:37;;;;;;;6.35;2.28;;;;;;;8.47;52.99;101294.03;4975081;28;20027;-94
2021/04/08 04:09:04;;;;;;;7.50;2.55;;;;;;;8.45;54.08;101300.22;4974346;28;20018;-94
2021/04/08 04:11:36;;;;;;;5.60;2.38;;;;;;;8.42;54.04;101292.53;4976147;28;20271;-94
2021/04/08 04:14:02;;;;;;;5.95;2.22;;;;;;;8.43;54.20;101291.59;4993208;28;20030;-94
2021/04/08 04:16:30;;;;;;;6.78;2.78;;;;;;;8.40;54.46;101292.56;4992146;28;20393;-95
2021/04/08 04:18:55;;;;;;;3.95;2.13;;;;;;;8.27;54.01;101296.63;4993394;28;20030;-95
2021/04/08 04:21:21;;;;;;;8.63;2.42;;;;;;;8.09;55.02;101287.81;4993336;28;20117;-94
2021/04/08 04:23:47;;;;;;;3.85;2.15;;;;;;;8.22;54.74;101294.22;4993220;28;20081;-94
2021/04/08 04:26:13;;;;;;;3.15;2.22;;;;;;;8.20;55.15;101290.81;4992888;28;20026;-93
2021/04/08 04:28:39;;;;;;;4.75;2.25;;;;;;;8.10;54.92;101289.53;4991337;28;20029;-95
2021/04/08 04:31:04;;;;;;;5.72;2.20;;;;;;;8.32;54.67;101290.28;4993468;28;20037;-94
2021/04/08 04:33:29;;;;;;;4.13;2.13;;;;;;;8.59;53.82;101286.50;4991967;28;20045;-95
2021/04/08 04:35:56;;;;;;;6.40;2.00;;;;;;;8.48;53.95;101284.41;4991936;28;20026;-95
2021/04/08 04:38:21;;;;;;;8.55;4.72;;;;;;;8.49;54.14;101281.72;4992019;28;20121;-94
2021/04/08 04:40:47;;;;;;;4.45;2.22;;;;;;;8.70;53.58;101273.78;4992483;28;20057;-94
2021/04/08 04:43:12;;;;;;;9.73;2.10;;;;;;;8.53;53.67;101271.94;4973614;28;20023;-95
2021/04/08 04:45:37;;;;;;;6.53;1.85;;;;;;;8.54;53.62;101268.41;4974221;28;20186;-96
2021/04/08 04:48:03;;;;;;;10.93;2.75;;;;;;;8.51;54.22;101268.53;4973869;28;20030;-94
2021/04/08 04:50:29;;;;;;;5.00;1.70;;;;;;;8.56;54.40;101263.94;4972511;28;20030;-95
2021/04/08 04:52:54;;;;;;;8.55;2.10;;;;;;;8.61;53.87;101254.13;4973544;28;20153;-95
2021/04/08 04:55:19;;;;;;;4.95;1.98;;;;;;;8.44;54.60;101261.91;4972388;28;20124;-96
2021/04/08 04:57:45;;;;;;;5.65;1.80;;;;;;;8.64;54.28;101269.69;4972932;28;20445;-94
2021/04/08 05:00:11;;;;;;;7.03;2.05;;;;;;;8.57;54.20;101273.50;4972409;28;20496;-95
2021/04/08 05:02:36;;;;;;;7.15;1.83;;;;;;;8.60;54.19;101262.88;4988667;28;20517;-94
2021/04/08 05:05:02;;;;;;;5.65;2.10;;;;;;;8.62;54.07;101268.06;4972066;28;20057;-94
2021/04/08 05:07:27;;;;;;;3.72;1.73;;;;;;;8.67;53.97;101264.31;4972130;28;20077;-95
2021/04/08 05:09:52;;;;;;;5.05;1.92;;;;;;;8.73;53.23;101252.72;4972211;28;20023;-94
2021/04/08 05:12:18;;;;;;;8.95;2.08;;;;;;;8.74;53.37;101262.25;4975221;28;20430;-94
2021/04/08 05:14:43;;;;;;;7.28;2.00;;;;;;;8.77;54.12;101259.50;4981750;28;20026;-94
2021/04/08 05:17:09;;;;;;;5.78;2.92;;;;;;;8.83;53.42;101264.44;4992730;28;20026;-94
2021/04/08 05:19:34;;;;;;;3.97;1.67;;;;;;;8.74;52.96;101264.88;4992711;28;20026;-94
2021/04/08 05:21:59;;;;;;;6.85;1.92;;;;;;;8.58;53.35;101264.72;4992702;28;20026;-94
2021/04/08 05:24:25;;;;;;;3.92;1.90;;;;;;;8.80;52.65;101263.72;4991265;28;20072;-94
2021/04/08 05:26:50;;;;;;;5.80;2.03;;;;;;;8.82;52.64;101265.34;4991162;28;20061;-94
2021/04/08 05:29:15;;;;;;;5.25;1.55;;;;;;;8.89;52.60;101263.31;4983998;28;20142;-94
2021/04/08 05:31:41;;;;;;;3.95;1.80;;;;;;;8.92;52.56;101255.28;4973025;28;20034;-95
2021/04/08 05:34:06;;;;;;;2.13;1.40;;;;;;;8.89;53.17;101261.53;4973140;28;20065;-95
2021/04/08 05:36:32;;;;;;;3.60;2.03;;;;;;;8.93;52.44;101265.72;4971940;28;20114;-94
2021/04/08 05:38:57;;;;;;;6.30;2.40;;;;;;;8.64;53.09;101258.38;4972611;28;20027;-93
2021/04/08 05:41:22;;;;;;;4.05;1.48;;;;;;;8.95;52.22;101254.31;4976550;28;20030;-93
2021/04/08 05:43:48;;;;;;;6.32;1.63;;;;;;;8.83;52.55;101253.13;4989535;28;20473;-93
2021/04/08 05:46:13;;;;;;;8.02;1.85;;;;;;;9.00;52.11;101255.78;4994900;28;20096;-94
2021/04/08 05:48:39;;;;;;;3.00;1.50;;;;;;;9.03;51.85;101253.03;4994876;28;20424;-94
2021/04/08 05:51:05;;;;;;;2.90;1.50;;;;;;;9.03;51.71;101255.63;4995944;28;20027;-94
2021/04/08 05:53:31;;;;;;;4.47;1.70;;;;;;;8.93;52.84;101254.38;4994485;28;20064;-93
2021/04/08 05:55:56;;;;;;;7.93;2.28;;;;;;;8.92;53.10;101252.66;4994538;28;20121;-94
2021/04/08 05:58:21;;;;;;;2.55;1.67;;;;;;;8.71;53.41;101260.63;4983757;28;20042;-93
2021/04/08 06:00:47;;;;;;;7.00;1.70;;;;;;;8.52;55.27;101254.53;4974880;28;20041;-94
2021/04/08 06:03:13;;;;;;;5.13;2.13;;;;;;;8.82;53.72;101251.41;4976011;28;20019;-93
2021/04/08 06:05:38;;;;;;;4.32;1.88;;;;;;;8.91;53.73;101246.59;4976021;28;20557;-93
2021/04/08 06:08:04;;;;;;;5.93;1.70;;;;;;;8.86;54.76;101247.72;4974828;28;20089;-93
2021/04/08 06:10:29;;;;;;;5.07;1.52;;;;;;;8.86;54.62;101245.94;4978031;28;20465;-95
2021/04/08 06:12:55;;;;;;;2.97;1.50;;;;;;;8.85;54.45;101251.28;4982026;28;20366;-94
2021/04/08 06:15:21;;;;;;;6.43;1.60;;;;;;;9.12;53.95;101249.97;4976345;28;20109;-94
2021/04/08 06:17:46;;;;;;;7.28;1.80;;;;;;;9.04;54.43;101256.47;4964422;28;20027;-94
2021/04/08 06:20:12;;;;;;;2.70;1.30;;;;;;;9.07;54.27;101248.50;4955489;28;20034;-93
2021/04/08 06:22:38;;;;;;;2.60;1.20;;;;;;;9.32;53.24;101249.00;4955134;29;20046;-93
2021/04/08 06:25:04;;;;;;;4.35;1.45;;;;;;;9.34;53.92;101246.31;4954820;28;20065;-94
2021/04/08 06:27:33;;;;;;;6.03;1.67;;;;;;;9.12;54.96;101249.09;4955175;29;20027;-94
2021/04/08 06:29:58;;;;;;;4.40;1.65;;;;;;;9.25;55.20;101244.13;4967558;28;20027;-93
2021/04/08 06:32:24;;;;;;;5.32;1.50;;;;;;;9.41;54.74;101252.91;4975443;28;20034;-93
2021/04/08 06:34:49;;;;;;;3.00;1.33;;;;;;;9.17;55.43;101246.28;4975268;28;20031;-93
2021/04/08 06:37:14;;;;;;;7.07;1.75;;;;;;;9.33;55.33;101260.31;4975237;28;20026;-95
2021/04/08 06:39:40;;;;;;;5.45;1.73;;;;;;;9.27;55.43;101255.38;4975572;28;20469;-93
2021/04/08 06:42:06;;;;;;;4.20;1.50;;;;;;;9.53;55.14;101249.69;4974457;28;20038;-92
2021/04/08 06:44:35;;;;;;;3.58;1.38;;;;;;;9.68;54.90;101262.97;4974284;28;20031;-93
2021/04/08 06:47:03;;;;;;;5.25;2.60;;;;;;;9.73;54.51;101258.31;4973308;28;20039;-93
2021/04/08 06:49:41;;;;;;;8.48;1.20;;;;;;;9.72;54.63;101260.09;4973818;28;20031;-92
2021/04/08 06:52:08;;;;;;;7.30;1.85;;;;;;;9.84;54.62;101256.00;4970483;28;20393;-92
2021/04/08 06:54:33;;;;;;;2.13;1.10;;;;;;;9.98;54.33;101257.06;4974384;28;20080;-92
2021/04/08 06:56:59;;;;;;;4.80;1.48;;;;;;;10.20;52.57;101255.00;4974393;28;20030;-92
2021/04/08 06:59:25;;;;;;;4.93;1.40;;;;;;;10.21;52.52;101246.22;4974336;28;20469;-92
2021/04/08 07:01:51;;;;;;;7.32;1.40;;;;;;;10.11;52.86;101251.09;4975480;28;20063;-92
2021/04/08 07:04:17;;;;;;;2.88;1.63;;;;;;;10.02;52.92;101243.72;4974131;28;20050;-92
2021/04/08 07:06:43;;;;;;;6.80;1.83;;;;;;;9.57;55.11;101244.28;4975384;28;20034;-91
2021/04/08 07:09:11;;;;;;;4.85;1.65;;;;;;;9.67;55.83;101256.00;4977081;28;20482;-91
2021/04/08 07:11:39;;;;;;;2.92;1.70;;;;;;;9.53;56.35;101261.94;4974574;28;20038;-92
2021/04/08 07:14:05;;;;;;;6.93;1.63;;;;;;;9.35;57.54;101258.47;4972978;28;20116;-92
2021/04/08 07:16:32;;;;;;;4.05;1.30;;;;;;;9.61;56.84;101258.94;4972365;28;20026;-92
2021/04/08 07:19:01;;;;;;;4.78;1.50;;;;;;;10.10;55.25;101261.69;4972540;28;20379;-93
2021/04/08 07:21:33;;;;;;;4.38;1.27;;;;;;;10.02;56.36;101256.00;4973332;28;20367;-92
2021/04/08 07:24:08;;;;;;;3.58;1.35;;;;;;;10.22;55.53;101253.16;4974090;28;20150;-92
2021/04/08 07:26:51;;;;;;;4.75;1.60;;;;;;;10.28;55.99;101252.81;4972851;28;20031;-92
2021/04/08 07:29:18;;;;;;;3.58;1.30;;;;;;;10.56;55.45;101246.13;4972651;28;20077;-93
2021/04/08 07:31:44;;;;;;;3.83;1.50;;;;;;;10.69;54.90;101241.06;4973629;28;20090;-93
2021/04/08 07:34:10;;;;;;;3.25;1.35;;;;;;;10.24;56.28;101235.53;4973857;28;20449;-93
2021/04/08 07:36:37;;;;;;;3.55;1.50;;;;;;;10.41;56.81;101236.47;4972081;28;20065;-92
2021/04/08 07:39:21;;;;;;;2.13;1.08;;;;;;;10.97;54.14;101237.72;4975205;28;20090;-94
2021/04/08 07:41:59;;;;;;;4.68;1.30;;;;;;;10.93;54.27;101235.38;4981804;28;20030;-93
2021/04/08 07:44:24;;;;;;;3.85;1.23;;;;;;;10.90;55.00;101236.41;4992567;28;20050;-93
2021/04/08 07:46:50;;;;;;;3.22;1.25;;;;;;;11.36;53.81;101230.31;4993822;28;20421;-94
2021/04/08 07:49:30;;;;;;;4.13;1.23;;;;;;;11.54;52.53;101223.94;4992421;28;20366;-92
2021/04/08 07:52:17;;;;;;;2.42;1.10;;;;;;;11.01;53.36;101234.00;4976059;28;20446;-93
2021/04/08 07:54:56;;;;;;;2.97;0.93;;;;;;;10.98;54.66;101242.06;4992073;28;20034;-92
2021/04/08 07:57:21;;;;;;;2.08;1.20;;;;;;;10.71;54.91;101231.31;4955215;28;20402;-93
2021/04/08 07:59:46;;;;;;;2.65;0.90;;;;;;;11.11;53.34;101215.94;4975738;28;20022;-93
2021/04/08 08:02:12;;;;;;;3.80;1.20;;;;;;;12.57;49.92;101220.34;4974491;28;20382;-94
2021/04/08 08:04:37;;;;;;;4.32;0.95;;;;;;;13.48;46.68;101215.28;4977295;28;20091;-93
2021/04/08 08:07:03;;;;;;;3.13;0.93;;;;;;;14.16;45.05;101223.00;4989183;28;20113;-93
2021/04/08 08:09:30;;;;;;;6.43;0.93;;;;;;;15.72;42.08;101225.75;4972386;28;20042;-92
2021/04/08 08:11:57;;;;;;;4.47;1.15;;;;;;;13.99;44.24;101218.94;4976870;28;20027;-94
2021/04/08 08:14:49;;;;;;;3.25;1.00;;;;;;;13.83;45.71;101216.50;4971734;28;20062;-93
2021/04/08 08:17:15;;;;;;;5.53;0.95;;;;;;;14.62;44.61;101230.38;4951507;28;20039;-91
2021/04/08 08:19:43;;;;;;;6.00;0.85;;;;;;;14.28;44.87;101220.38;4992589;28;20096;-92
2021/04/08 08:22:20;;;;;;;4.00;1.00;;;;;;;14.64;43.85;101213.44;4976806;28;20030;-93
2021/04/08 08:24:53;;;;;;;3.67;1.33;;;;;;;14.74;43.62;101215.44;4992433;28;20026;-92
2021/04/08 08:27:19;;;;;;;3.67;0.85;;;;;;;14.10;45.01;101229.59;4982449;28;20050;-93
2021/04/08 08:29:56;;;;;;;3.97;0.95;;;;;;;14.15;44.08;101231.91;4977032;28;20489;-91
2021/04/08 08:32:22;;;;;;;4.90;1.85;;;;;;;13.66;45.61;101213.22;4980433;28;20042;-91
2021/04/08 08:34:48;;;;;;;2.55;1.17;;;;;;;13.84;45.93;101219.03;4976656;28;20033;-92
2021/04/08 08:37:13;;;;;;;4.55;0.90;;;;;;;13.86;46.09;101214.50;4991254;28;20026;-92
2021/04/08 08:39:43;;;;;;;5.50;0.80;;;;;;;14.01;46.62;101214.38;4999502;28;20018;-96
2021/04/08 08:42:10;;;;;;;1.70;1.05;;;;;;;14.27;46.17;101209.91;5000676;28;20019;-96
2021/04/08 08:44:37;;;;;;;3.60;1.73;;;;;;;13.33;47.81;101200.53;5174480;23;20033;-96
2021/04/08 08:49:41;;;;;;;3.28;1.02;;;;;;;13.81;47.71;101216.59;5187930;23;20233;-94
2021/04/08 08:52:09;;;;;;;6.38;1.10;;;;;;;13.47;47.87;101218.06;5028720;28;20027;-96
2021/04/08 08:54:35;;;;;;;3.97;1.10;;;;;;;12.85;49.80;101197.47;5002683;28;20102;-94
2021/04/08 08:57:02;;;;;;;2.33;0.90;;;;;;;14.24;47.25;101207.50;4997860;28;20046;-94
2021/04/08 08:59:29;;;;;;;6.15;0.90;;;;;;;16.35;42.52;101199.69;5013330;28;20022;-96
2021/04/08 09:01:55;;;;;;;6.63;2.58;;;;;;;16.98;40.30;101200.78;5011371;28;20037;-96
2021/04/08 09:04:21;;;;;;;5.72;0.90;;;;;;;18.58;37.91;101195.09;5012700;28;20029;-96
2021/04/08 09:06:48;;;;;;;5.30;1.00;;;;;;;19.97;35.31;101206.38;5010812;28;20033;-95
2021/04/08 09:09:16;;;;;;;3.83;1.27;;;;;;;19.82;35.29;101198.00;5012033;28;20042;-95
2021/04/08 09:11:43;;;;;;;3.30;1.40;;;;;;;19.38;36.23;101198.50;5015376;28;20025;-96
2021/04/08 09:14:11;;;;;;;1.23;0.80;;;;;;;19.96;34.72;101199.34;5031475;28;20032;-95
2021/04/08 09:16:43;;;;;;;3.65;1.00;;;;;;;21.13;32.87;101193.31;5026650;28;20116;-94
2021/04/08 09:19:09;;;;;;;4.45;0.80;;;;;;;20.89;33.46;101193.94;5023623;28;20384;-94
2021/04/08 09:21:52;;;;;;;3.45;1.00;;;;;;;20.49;34.09;101195.16;5017279;28;20028;-95
2021/04/08 09:24:22;;;;;;;4.45;1.13;;;;;;;21.97;31.73;101194.56;5010651;28;20025;-95
2021/04/08 09:26:56;;;;;;;4.60;0.88;;;;;;;21.17;32.40;101194.72;5017169;28;20092;-96
2021/04/08 09:29:37;;;;;;;6.53;1.00;;;;;;;21.86;31.82;101178.81;5016101;28;20366;-94
2021/04/08 09:32:46;;;;;;;4.38;1.20;;;;;;;21.47;32.48;101187.28;5005058;28;20037;-96
2021/04/08 09:35:14;;;;;;;3.45;1.00;;;;;;;23.31;29.03;101181.19;5003987;28;20042;-96
2021/04/08 09:37:46;;;;;;;4.93;1.13;;;;;;;22.95;30.62;101184.19;5015783;28;20116;-96
2021/04/08 09:40:20;;;;;;;;;;;;;;;23.43;30.16;101186.22;5010954;28;20056;-95
2021/04/08 09:42:46;;;;;;;4.78;0.90;;;;;;;22.81;31.57;101179.50;5011545;28;20063;-95
2021/04/08 09:45:11;;;;;;;2.90;0.95;;;;;;;22.85;31.60;101167.44;5014215;28;20108;-95
2021/04/08 09:47:37;;;;;;;4.30;1.10;;;;;;;23.01;31.57;101173.81;5010940;28;20030;-96
2021/04/08 09:50:03;;;;;;;2.90;1.05;;;;;;;21.21;34.32;101158.69;5013225;28;20037;-96
2021/04/08 09:52:28;;;;;;;4.05;1.20;;;;;;;21.67;34.28;101164.69;5000888;28;20032;-96
2021/04/08 09:54:58;;;;;;;5.97;1.13;;;;;;;21.27;33.66;101168.75;5020082;28;20215;-96
2021/04/08 09:57:38;;;;;;;4.25;1.48;;;;;;;21.17;34.16;101173.34;5019323;28;20045;-96
2021/04/08 10:00:16;;;;;;;5.30;1.38;;;;;;;22.02;33.08;101178.03;5019492;28;20026;-95
2021/04/08 10:02:59;;;;;;;6.97;1.77;;;;;;;23.89;30.84;101173.06;5011905;28;20113;-96
2021/04/08 10:05:36;;;;;;;5.03;1.25;;;;;;;25.11;29.05;101179.56;5011439;28;20026;-96
2021/04/08 10:08:01;;;;;;;6.07;1.30;;;;;;;24.70;29.54;101171.00;5012571;28;20026;-96
2021/04/08 10:10:36;;;;;;;3.60;1.25;;;;;;;23.21;31.26;101175.19;5013075;28;20503;-96
2021/04/08 10:13:13;;;;;;;1.83;1.10;;;;;;;23.65;30.76;101164.03;5012357;28;20049;-96
2021/04/08 10:15:38;;;;;;;1.63;0.88;;;;;;;22.85;32.01;101164.78;5014128;28;20100;-96
2021/04/08 10:18:19;;;;;;;2.85;1.00;;;;;;;23.11;30.87;101170.00;5020536;28;20053;-96
2021/04/08 10:20:47;;;;;;;3.55;0.98;;;;;;;22.30;32.10;101163.50;5018524;28;20082;-96
2021/04/08 10:23:13;;;;;;;4.03;1.30;;;;;;;22.02;32.70;101167.34;5006958;28;20018;-96
2021/04/08 10:25:39;;;;;;;3.65;1.05;;;;;;;22.16;32.87;101158.75;5012768;28;20117;-92
2021/04/08 10:28:05;;;;;;;3.80;1.02;;;;;;;23.07;31.70;101157.94;5015795;28;20109;-91
2021/04/08 10:30:38;;;;;;;6.65;1.55;;;;;;;23.38;32.07;101156.41;5015483;28;20022;-91
2021/04/08 10:33:17;;;;;;;3.42;1.90;;;;;;;23.42;31.25;101155.03;5024038;28;20057;-95
2021/04/08 10:35:43;;;;;;;3.30;1.25;;;;;;;23.59;31.09;101159.38;5028306;28;20049;-95
2021/04/08 10:38:09;;;;;;;4.85;1.55;;;;;;;23.26;30.77;101148.72;5026738;28;20034;-95
2021/04/08 10:40:36;;;;;;;7.55;1.45;;;;;;;22.20;31.93;101148.56;5007483;28;20473;-96
2021/04/08 10:43:15;;;;;;;3.13;1.40;;;;;;;21.11;33.42;101149.91;5007595;28;20010;-96
2021/04/08 10:45:52;;;;;;;4.60;1.23;;;;;;;20.82;34.29;101151.00;5011286;28;20116;-96
2021/04/08 10:48:19;;;;;;;7.68;1.58;;;;;;;20.18;35.14;101145.66;5014010;28;20037;-96
2021/04/08 10:50:44;;;;;;;3.13;1.42;;;;;;;19.75;37.01;101141.78;4994492;28;20031;-96
2021/04/08 10:53:09;;;;;;;3.58;1.35;;;;;;;18.57;38.71;101134.88;4994693;28;20025;-96
2021/04/08 10:55:35;;;;;;;10.88;2.30;;;;;;;18.49;39.51;101137.41;4994976;28;20104;-95
2021/04/08 10:58:00;;;;;;;4.70;1.38;;;;;;;17.98;39.92;101143.72;4993917;28;20022;-96
2021/04/08 11:00:26;;;;;;;7.18;1.95;;;;;;;17.34;40.60;101142.97;4993857;28;20033;-96
2021/04/08 11:02:51;;;;;;;6.15;1.40;;;;;;;17.21;40.44;101132.53;4993990;28;20481;-95
2021/04/08 11:05:17;;;;;;;6.65;1.48;;;;;;;17.41;40.99;101135.28;5012265;28;20081;-96
2021/04/08 11:07:45;;;;;;;3.35;1.20;;;;;;;17.72;40.76;101135.34;5012829;28;20029;-95
2021/04/08 11:10:17;;;;;;;6.68;1.58;;;;;;;18.42;38.82;101126.50;5013343;28;20378;-96
2021/04/08 11:12:42;;;;;;;3.58;1.25;;;;;;;19.54;37.53;101119.81;5013283;28;20026;-96
2021/04/08 11:15:11;;;;;;;7.45;2.05;;;;;;;19.64;37.27;101125.94;5013302;28;20032;-96
2021/04/08 11:17:42;;;;;;;7.40;2.08;;;;;;;19.09;38.98;101123.16;5013322;28;20492;-95
2021/04/08 11:20:09;;;;;;;8.00;2.10;;;;;;;19.59;37.89;101120.25;5013193;28;20034;-95
2021/04/08 11:22:34;;;;;;;4.30;1.40;;;;;;;19.10;37.94;101108.88;5012629;28;20026;-96
2021/04/08 11:25:01;;;;;;;3.75;1.45;;;;;;;18.71;38.42;101109.69;5013262;28;20022;-95
2021/04/08 11:27:36;;;;;;;7.50;1.60;;;;;;;18.18;40.12;101115.38;5013239;28;20022;-96
2021/04/08 11:30:04;;;;;;;2.70;1.08;;;;;;;17.94;39.39;101118.38;5013230;28;20046;-96
2021/04/08 11:32:29;;;;;;;7.18;1.30;;;;;;;18.11;39.50;101109.78;5013039;28;20018;-96
2021/04/08 11:34:58;;;;;;;2.05;0.93;;;;;;;18.09;39.16;101098.44;5012517;28;20034;-96
2021/04/08 11:37:37;;;;;;;5.78;1.42;;;;;;;18.36;38.24;101103.09;5012635;28;20049;-96